Lacon, IL

12:11 AM CDT on March 24, 2017 (GMT -0500)
Lacon

Weather History for KC75 - June, 2014

Change the Weather History Date:

Monday, June 2, 2014

  Actual Average (KPIA) Record (KPIA)
Temperature  
Mean Temperature 77 °F -  
Max Temperature 84 °F 77 °F 100 °F (1934)
Min Temperature 70 °F 55 °F 44 °F (1929)
Cooling Degree Days 12    
Growing Degree Days 27 (Base 50)    
Moisture  
Dew Point 64 °F    
Average Humidity 66    
Maximum Humidity 86    
Minimum Humidity 40    
Precipitation  
Precipitation 0.03 in - - ()
Sea Level Pressure  
Sea Level Pressure 29.85 in    
Wind  
Wind Speed 11 mph (SW)    
Max Wind Speed 18 mph    
Max Gust Speed 26 mph    
Visibility 10 miles    
Events Rain    
Averages and records for this station are not official NWS values.
T = Trace of Precipitation, MM = Missing Value Source: NWS Daily Summary

Daily Weather History Graph

Daily Weather History Graph

Search for Another Location

Airport or City:

Trip Planner

Search our weather history database for the weather conditions in past years. The results will help you decide how hot, cold, wet, or windy it might be!

Date:

Astronomy

Jun. 02, 2014 Rise Set
Actual Time 5:27 AM CDT 8:24 PM CDT
Civil Twilight 4:54 AM CDT 8:57 PM CDT
Nautical Twilight 4:12 AM CDT 9:38 PM CDT
Astronomical Twilight 3:23 AM CDT 10:27 PM CDT
Moon 9:55 AM CDT (6/2) 11:51 PM CDT (6/2)
Length of Visible Light 16h 02m
Length of Day
14h 57m
Waxing Crescent, 22% of the Moon is Illuminated
Jun 2
Waxing Crescent
Jun 5
First Quarter
Jun 12
Full
Jun 19
Last Quarter
Jun 27
New

Hourly Weather History & Observations

Time (CDT) Temp. Heat Index Dew Point Humidity Pressure Visibility Wind Dir Wind Speed Gust Speed Precip Events Conditions
12:15 AM 74.3 °F - 68.2 °F 81% 29.90 in 10.0 mi South 10.4 mph - N/A   Clear
12:35 AM 74.3 °F - 68.4 °F 82% 29.89 in 10.0 mi South 10.4 mph - N/A   Clear
12:55 AM 74.7 °F - 68.0 °F 80% 29.88 in 10.0 mi South 10.4 mph - N/A   Clear
1:15 AM 74.3 °F - 68.0 °F 81% 29.88 in 10.0 mi South 8.1 mph 16.1 mph N/A   Clear
1:35 AM 74.1 °F - 67.6 °F 80% 29.89 in 10.0 mi South 9.2 mph 16.1 mph N/A   Clear
1:55 AM 73.6 °F - 67.3 °F 81% 29.88 in 10.0 mi South 9.2 mph - N/A   Clear
2:15 AM 73.8 °F - 67.1 °F 80% 29.88 in 10.0 mi South 8.1 mph 16.1 mph N/A   Clear
2:35 AM 73.0 °F - 67.1 °F 82% 29.87 in 10.0 mi South 10.4 mph - N/A   Clear
2:55 AM 73.6 °F - 66.6 °F 79% 29.87 in 10.0 mi South 10.4 mph - N/A   Clear
3:15 AM 73.9 °F - 66.6 °F 78% 29.86 in 10.0 mi South 11.5 mph 18.4 mph N/A   Clear
3:35 AM 74.3 °F - 66.7 °F 77% 29.85 in 10.0 mi South 13.8 mph 21.9 mph N/A   Clear
3:55 AM 73.4 °F - 67.1 °F 81% 29.85 in 10.0 mi South 11.5 mph 17.3 mph N/A   Clear
4:15 AM 73.4 °F - 67.1 °F 81% 29.84 in 10.0 mi South 12.7 mph 19.6 mph N/A   Clear
4:35 AM 73.2 °F - 66.7 °F 80% 29.84 in 10.0 mi SSW 11.5 mph 18.4 mph N/A   Clear
4:55 AM 73.4 °F - 66.7 °F 80% 29.83 in 10.0 mi SSW 13.8 mph 19.6 mph N/A   Clear
5:15 AM 73.4 °F - 66.4 °F 79% 29.83 in 10.0 mi SSW 11.5 mph 23.0 mph N/A   Clear
5:35 AM 73.2 °F - 65.8 °F 78% 29.83 in 10.0 mi SSW 12.7 mph 19.6 mph N/A   Clear
5:55 AM 73.4 °F - 65.7 °F 77% 29.82 in 10.0 mi SSW 13.8 mph 26.5 mph N/A   Clear
6:15 AM 73.4 °F - 65.5 °F 76% 29.82 in 10.0 mi South 13.8 mph 21.9 mph N/A   Clear
6:35 AM 73.6 °F - 65.5 °F 76% 29.82 in 10.0 mi South 13.8 mph 23.0 mph N/A   Clear
6:55 AM 73.9 °F - 65.5 °F 75% 29.81 in 10.0 mi South 16.1 mph 26.5 mph N/A   Clear
7:15 AM 74.3 °F - 66.0 °F 75% 29.81 in 10.0 mi South 12.7 mph 20.7 mph N/A   Clear
7:35 AM 75.2 °F - 66.2 °F 73% 29.82 in 10.0 mi SSW 15.0 mph 23.0 mph N/A   Clear
7:55 AM 75.4 °F - 66.4 °F 73% 29.83 in 10.0 mi SSW 15.0 mph 19.6 mph N/A   Scattered Clouds
8:15 AM 74.8 °F - 66.2 °F 74% 29.83 in 10.0 mi SSW 17.3 mph 24.2 mph N/A   Overcast
8:35 AM 75.4 °F - 66.2 °F 73% 29.83 in 10.0 mi SSW 16.1 mph 26.5 mph N/A   Overcast
8:55 AM 75.2 °F - 66.2 °F 73% 29.84 in 10.0 mi SSW 15.0 mph 26.5 mph N/A   Overcast
9:15 AM 75.2 °F - 66.0 °F 73% 29.84 in 10.0 mi SSW 12.7 mph 25.3 mph N/A   Overcast
9:35 AM 75.2 °F - 66.0 °F 73% 29.83 in 10.0 mi SW 18.4 mph 24.2 mph N/A   Overcast
9:55 AM 76.6 °F - 66.0 °F 70% 29.84 in 10.0 mi SW 15.0 mph 26.5 mph N/A   Overcast
10:15 AM 77.0 °F - 66.0 °F 69% 29.84 in 10.0 mi WSW 13.8 mph 24.2 mph N/A   Mostly Cloudy
10:35 AM 71.1 °F - 66.7 °F 86% 29.87 in 5.0 mi WSW 13.8 mph 24.2 mph 0.03 in Rain Light Rain
10:55 AM 72.1 °F - 67.5 °F 85% 29.88 in 10.0 mi SW 12.7 mph 19.6 mph 0.03 in   Overcast
11:15 AM 72.5 °F - 67.1 °F 83% 29.89 in 10.0 mi SW 9.2 mph - N/A   Mostly Cloudy
11:35 AM 75.2 °F - 68.0 °F 78% 29.89 in 10.0 mi SW 9.2 mph - N/A   Scattered Clouds
11:55 AM 75.6 °F - 66.9 °F 74% 29.89 in 10.0 mi SW 10.4 mph - N/A   Scattered Clouds
12:15 PM 75.4 °F - 65.1 °F 70% 29.89 in 10.0 mi WSW 13.8 mph 20.7 mph N/A   Scattered Clouds
12:35 PM 78.1 °F - 65.5 °F 65% 29.89 in 10.0 mi SW 10.4 mph - N/A   Clear
12:55 PM 80.6 °F 82.3 °F 64.4 °F 58% 29.88 in 10.0 mi WSW 12.7 mph 18.4 mph N/A   Scattered Clouds
1:15 PM 80.8 °F 82.1 °F 63.3 °F 55% 29.87 in 10.0 mi SW 15.0 mph 20.7 mph N/A   Clear
1:35 PM 81.3 °F 82.6 °F 63.0 °F 54% 29.87 in 10.0 mi WSW 13.8 mph 23.0 mph N/A   Scattered Clouds
1:55 PM 82.4 °F 83.2 °F 62.2 °F 50% 29.87 in 10.0 mi WSW 16.1 mph 21.9 mph N/A   Scattered Clouds
2:15 PM 83.3 °F 84.1 °F 62.2 °F 49% 29.86 in 10.0 mi WSW 13.8 mph 18.4 mph N/A   Scattered Clouds
2:35 PM 82.2 °F 82.7 °F 61.0 °F 48% 29.86 in 10.0 mi WSW 17.3 mph 25.3 mph N/A   Mostly Cloudy
2:55 PM 82.6 °F 82.8 °F 60.1 °F 46% 29.85 in 10.0 mi WSW 18.4 mph 24.2 mph N/A   Scattered Clouds
3:15 PM 83.8 °F 83.8 °F 59.7 °F 44% 29.85 in 10.0 mi West 15.0 mph 19.6 mph N/A   Clear
3:35 PM 83.5 °F 83.4 °F 59.4 °F 44% 29.85 in 10.0 mi West 10.4 mph 21.9 mph N/A   Scattered Clouds
3:55 PM 84.6 °F 84.4 °F 59.5 °F 43% 29.85 in 10.0 mi West 11.5 mph 21.9 mph N/A   Clear
4:15 PM 83.8 °F 83.8 °F 59.9 °F 44% 29.84 in 10.0 mi WSW 10.4 mph 19.6 mph N/A   Scattered Clouds
4:35 PM 83.8 °F 83.4 °F 58.6 °F 42% 29.85 in 10.0 mi West 10.4 mph 19.6 mph N/A   Scattered Clouds
4:55 PM 83.3 °F 83.2 °F 59.4 °F 44% 29.84 in 10.0 mi West 10.4 mph 17.3 mph N/A   Mostly Cloudy
5:15 PM 84.4 °F 84.4 °F 60.4 °F 44% 29.84 in 10.0 mi WSW 9.2 mph - N/A   Scattered Clouds
5:35 PM 84.0 °F 83.8 °F 59.2 °F 43% 29.84 in 10.0 mi West 10.4 mph - N/A   Mostly Cloudy
5:55 PM 84.4 °F 83.8 °F 58.1 °F 41% 29.83 in 10.0 mi West 10.4 mph 18.4 mph N/A   Scattered Clouds
6:15 PM 84.4 °F 83.7 °F 57.7 °F 40% 29.83 in 10.0 mi West 13.8 mph 18.4 mph N/A   Clear
6:35 PM 83.8 °F 83.4 °F 58.3 °F 42% 29.83 in 10.0 mi West 9.2 mph 19.6 mph N/A   Clear
6:55 PM 83.3 °F 83.1 °F 58.5 °F 43% 29.83 in 10.0 mi West 12.7 mph 16.1 mph N/A   Clear
7:15 PM 82.8 °F 82.7 °F 59.0 °F 44% 29.83 in 10.0 mi West 8.1 mph - N/A   Clear
7:35 PM 82.0 °F 82.2 °F 59.2 °F 46% 29.84 in 10.0 mi West 5.8 mph 16.1 mph N/A   Clear
7:55 PM 81.0 °F 81.5 °F 59.5 °F 48% 29.84 in 10.0 mi WSW 6.9 mph - N/A   Clear
8:15 PM 80.1 °F 80.9 °F 59.7 °F 50% 29.85 in 10.0 mi West 5.8 mph - N/A   Clear
8:35 PM 78.8 °F - 60.1 °F 53% 29.85 in 10.0 mi WSW 6.9 mph - N/A   Clear
8:55 PM 77.7 °F - 60.4 °F 55% 29.86 in 10.0 mi SW 3.5 mph - N/A   Clear
9:15 PM 75.2 °F - 60.8 °F 61% 29.86 in 10.0 mi SSW 3.5 mph - N/A   Clear
9:35 PM 71.4 °F - 61.0 °F 70% 29.87 in 10.0 mi SSW 3.5 mph - N/A   Clear
9:55 PM 71.6 °F - 61.0 °F 69% 29.87 in 10.0 mi SSW 3.5 mph - N/A   Clear
10:15 PM 71.4 °F - 61.3 °F 70% 29.88 in 10.0 mi SSW 3.5 mph - N/A   Clear
10:35 PM 70.9 °F - 61.9 °F 73% 29.88 in 10.0 mi SSW 3.5 mph - N/A   Clear
10:55 PM 71.4 °F - 62.8 °F 74% 29.88 in 10.0 mi SSW 4.6 mph - N/A   Clear
11:15 PM 71.6 °F - 63.3 °F 75% 29.88 in 10.0 mi SW 4.6 mph - N/A   Clear
11:35 PM 72.3 °F - 63.5 °F 74% 29.89 in 10.0 mi SW 4.6 mph - N/A   Clear